Alton, Virginia
Current Conditions -  °F | °C
As of 3:15 PM on Saturday 25 Oct 2014 (Local Time) from KW78 Reporting Station
Clear Clear  
Wind Chill: 69°   Ceiling: Unl
Heat Index: 69°   Visibility: 10mi
Dew Point: 38°   Wind: 5mph
Humidity: 32%   Direction: 230°SW
Pressure: 29.91"   Gusts: NA
Location:  36.57°N, 79°W
Report Text: KW78 251915Z AUTO 23004KT 10SM CLR 21/03 A2991 RMK AO1 T02080034
Loading
Personal Weather Stations






























Interactive Weather Map New forecast layout! Learn more

10-Day Weather Forecast

Advertisements
Track Severe Weather on mobile